Time;durP1;ratioP1;P1;durP2;ratioP2;P2;SDS_P1;SDS_P2;PMS_P1;PMS_P2;Temp;Humidity;BMP_temperature;BMP_pressure;BME280_temperature;BME280_humidity;BME280_pressure;Samples;Min_cycle;Max_cycle;Signal;HPM_P1;HPM_P2
2022/09/30 00:00:56;;;;;;;8.27;7.40;;;;;;;15.50;53.52;99014.47;4155039;28;20262;-32
2022/09/30 00:02:58;;;;;;;9.53;7.07;;;;;;;15.87;52.89;98981.84;4167391;28;20232;-32
2022/09/30 00:05:00;;;;;;;9.43;7.30;;;;;;;15.09;54.70;99015.56;4172936;28;20319;-31
2022/09/30 00:07:01;;;;;;;9.10;6.77;;;;;;;16.86;51.04;98872.22;4172057;28;20236;-31
2022/09/30 00:09:04;;;;;;;7.87;6.17;;;;;;;16.68;50.86;98932.06;4170805;28;20320;-32
2022/09/30 00:11:10;;;;;;;8.10;6.73;;;;;;;17.10;50.27;98879.41;4174430;28;20339;-32
2022/09/30 00:13:11;;;;;;;7.77;6.23;;;;;;;17.50;49.69;98853.13;4174255;28;20252;-32
2022/09/30 00:15:13;;;;;;;7.47;6.23;;;;;;;17.28;50.15;98900.13;4176450;28;20697;-32
2022/09/30 00:17:15;;;;;;;7.40;6.20;;;;;;;17.55;49.29;98872.09;4176771;28;20228;-32
2022/09/30 00:19:17;;;;;;;10.30;6.30;;;;;;;17.64;49.04;98887.69;4172773;28;20674;-32
2022/09/30 00:21:18;;;;;;;10.00;6.00;;;;;;;17.13;49.95;98961.41;4152730;28;20332;-32
2022/09/30 00:23:22;;;;;;;8.20;6.90;;;;;;;17.37;49.43;98919.44;4174703;28;20734;-32
2022/09/30 00:25:23;;;;;;;8.33;6.37;;;;;;;16.71;50.45;98998.75;4172758;28;20312;-32
2022/09/30 00:27:25;;;;;;;7.77;6.60;;;;;;;15.86;52.68;99021.25;4174460;28;20266;-31
2022/09/30 00:29:26;;;;;;;8.93;7.23;;;;;;;16.19;51.66;98991.56;4171676;28;20231;-32
2022/09/30 00:31:31;;;;;;;11.03;7.30;;;;;;;16.14;52.07;98983.34;4174580;28;20770;-32
2022/09/30 00:33:33;;;;;;;9.97;6.90;;;;;;;16.03;51.88;98988.56;4168397;28;20236;-31
2022/09/30 00:35:36;;;;;;;11.57;7.17;;;;;;;15.95;52.27;98979.75;4173172;28;20759;-32
2022/09/30 00:37:38;;;;;;;8.37;7.17;;;;;;;15.93;52.50;98987.19;4174314;28;20264;-32
2022/09/30 00:39:40;;;;;;;10.33;6.73;;;;;;;15.73;52.29;99008.69;4175436;28;20322;-31
2022/09/30 00:41:42;;;;;;;8.83;7.10;;;;;;;15.62;52.78;98993.22;4174747;28;20256;-32
2022/09/30 00:43:52;;;;;;;7.10;6.40;;;;;;;15.22;53.47;99020.91;4176449;28;20263;-31
2022/09/30 00:45:58;;;;;;;7.43;6.20;;;;;;;16.41;51.72;98883.94;4175281;28;20231;-31
2022/09/30 00:48:07;;;;;;;7.33;6.43;;;;;;;15.91;51.76;98958.91;4174443;28;20220;-32
2022/09/30 00:50:16;;;;;;;7.30;5.83;;;;;;;16.37;50.75;98921.13;4155231;28;20233;-31
2022/09/30 00:52:18;;;;;;;7.93;6.30;;;;;;;16.11;51.58;98958.81;4173632;28;20270;-31
2022/09/30 00:54:28;;;;;;;8.10;6.20;;;;;;;16.55;50.67;98917.72;4172848;28;20270;-32
2022/09/30 00:56:35;;;;;;;7.90;6.70;;;;;;;16.52;50.68;98922.72;4173193;28;20231;-31
2022/09/30 00:58:53;;;;;;;7.97;6.73;;;;;;;16.71;50.53;98916.34;4170528;28;20734;-31
2022/09/30 01:00:58;;;;;;;8.27;5.90;;;;;;;16.84;49.79;98906.50;4169823;28;20262;-32
2022/09/30 01:03:02;;;;;;;7.27;6.00;;;;;;;16.19;51.09;98977.34;4175732;28;20673;-32
2022/09/30 01:05:04;;;;;;;7.00;6.00;;;;;;;16.73;50.36;98916.13;4174513;28;20675;-32
2022/09/30 01:07:07;;;;;;;7.00;5.97;;;;;;;16.27;50.63;98978.97;4172416;28;20605;-32
2022/09/30 01:09:09;;;;;;;6.27;5.63;;;;;;;15.91;51.65;99001.81;4172983;28;20708;-32
2022/09/30 01:11:11;;;;;;;8.37;6.13;;;;;;;15.59;51.66;99026.63;4174657;28;20302;-32
2022/09/30 01:13:16;;;;;;;7.17;6.07;;;;;;;15.52;52.43;99020.44;4172606;28;20320;-31
2022/09/30 01:15:23;;;;;;;7.33;6.27;;;;;;;15.29;53.06;99020.91;4173855;28;20228;-32
2022/09/30 01:17:35;;;;;;;6.77;6.17;;;;;;;15.66;52.50;98972.22;4172190;28;20255;-32
2022/09/30 01:19:58;;;;;;;6.87;5.70;;;;;;;15.66;52.05;98980.25;4175733;28;20755;-32
2022/09/30 01:22:32;;;;;;;7.70;6.17;;;;;;;15.94;51.32;98977.25;4173069;28;20239;-32
2022/09/30 01:25:10;;;;;;;6.87;6.17;;;;;;;16.26;50.80;98929.03;4153689;28;20228;-31
2022/09/30 01:27:45;;;;;;;6.20;5.47;;;;;;;15.88;50.95;98981.63;4172672;28;20720;-32
2022/09/30 01:30:02;;;;;;;7.93;5.73;;;;;;;15.72;51.70;98999.00;4171416;28;20262;-32
2022/09/30 01:32:22;;;;;;;7.10;5.80;;;;;;;16.68;49.97;98910.59;4174475;28;20311;-31
2022/09/30 01:34:50;;;;;;;7.43;5.60;;;;;;;16.61;49.66;98950.91;4171045;28;20262;-31
2022/09/30 01:37:12;;;;;;;6.07;4.80;;;;;;;16.28;49.78;99000.22;4165910;28;20725;-32
2022/09/30 01:39:25;;;;;;;7.57;4.63;;;;;;;16.37;50.75;98945.25;4174265;28;20307;-31
2022/09/30 01:41:51;;;;;;;7.00;4.70;;;;;;;16.35;50.73;98946.50;4167804;28;20327;-32
2022/09/30 01:44:15;;;;;;;5.70;4.53;;;;;;;16.31;50.43;98972.94;4168439;28;20256;-31
2022/09/30 01:46:19;;;;;;;4.73;4.23;;;;;;;17.03;48.96;98904.69;4172932;28;20262;-32
2022/09/30 01:48:34;;;;;;;5.50;4.40;;;;;;;17.23;48.25;98940.22;4174135;28;20891;-32
2022/09/30 01:50:54;;;;;;;7.27;4.43;;;;;;;17.13;48.14;98961.41;4173163;28;20712;-32
2022/09/30 01:53:17;;;;;;;5.27;4.53;;;;;;;17.58;47.38;98937.00;4168517;28;20323;-32
2022/09/30 01:55:42;;;;;;;5.70;4.70;;;;;;;17.59;47.31;98949.38;4169952;28;20683;-32
2022/09/30 01:58:09;;;;;;;6.17;4.83;;;;;;;17.43;47.75;98980.38;4170532;28;20259;-32
2022/09/30 02:00:12;;;;;;;5.80;4.53;;;;;;;17.25;47.72;99013.38;4172193;28;20362;-32
2022/09/30 02:02:19;;;;;;;5.27;4.23;;;;;;;16.62;48.84;99067.97;4172678;28;20259;-32
2022/09/30 02:04:30;;;;;;;7.37;4.37;;;;;;;16.95;48.25;99026.63;4171335;28;20234;-32
2022/09/30 02:06:40;;;;;;;4.90;4.00;;;;;;;17.26;47.97;99000.75;4173342;28;20259;-32
2022/09/30 02:09:04;;;;;;;5.13;4.00;;;;;;;17.12;48.35;99029.59;4169732;28;20266;-32
2022/09/30 02:11:18;;;;;;;5.63;4.10;;;;;;;16.92;48.56;99062.81;4172567;28;20228;-32
2022/09/30 02:13:31;;;;;;;4.53;3.73;;;;;;;16.86;48.08;99069.03;4174341;28;20262;-32
2022/09/30 02:15:38;;;;;;;4.40;4.00;;;;;;;16.49;49.22;99100.25;4171885;28;20235;-32
2022/09/30 02:17:46;;;;;;;3.97;3.63;;;;;;;15.91;50.36;99098.34;4171080;28;20240;-31
2022/09/30 02:19:59;;;;;;;7.20;4.47;;;;;;;15.94;50.23;99077.28;4172648;28;20255;-32
2022/09/30 02:22:14;;;;;;;4.53;3.80;;;;;;;16.29;49.39;99076.97;4169038;28;20239;-32
2022/09/30 02:24:18;;;;;;;5.63;4.20;;;;;;;16.60;49.18;99042.38;4168331;28;20637;-32
2022/09/30 02:26:28;;;;;;;3.90;3.50;;;;;;;16.88;48.24;99024.00;4172223;28;20255;-32
2022/09/30 02:28:30;;;;;;;4.40;3.50;;;;;;;16.82;48.73;99040.16;4169081;28;20258;-32
2022/09/30 02:30:35;;;;;;;4.33;3.93;;;;;;;17.09;48.24;99011.22;4173221;28;20310;-31
2022/09/30 02:32:43;;;;;;;4.43;4.03;;;;;;;17.30;47.94;99007.38;4165804;28;20267;-32
2022/09/30 02:34:49;;;;;;;3.73;3.13;;;;;;;17.25;48.06;99009.88;4170631;28;20227;-32
2022/09/30 02:37:10;;;;;;;3.67;3.37;;;;;;;17.27;47.44;99021.19;4171265;28;20282;-32
2022/09/30 02:39:52;;;;;;;4.10;3.47;;;;;;;17.47;46.87;99013.00;4170881;28;20258;-32
2022/09/30 02:42:02;;;;;;;4.57;3.33;;;;;;;17.08;47.88;99058.75;4075487;29;20255;-32
2022/09/30 02:44:04;;;;;;;4.70;3.57;;;;;;;17.09;47.30;99060.41;4139466;28;20238;-32
2022/09/30 02:46:06;;;;;;;4.13;3.53;;;;;;;17.27;47.36;99040.81;4166934;28;20738;-32
2022/09/30 02:48:20;;;;;;;4.37;3.63;;;;;;;16.65;47.83;99109.66;4171849;28;20717;-31
2022/09/30 02:50:35;;;;;;;5.37;3.87;;;;;;;17.41;47.20;99030.84;4173565;28;20634;-32
2022/09/30 02:52:47;;;;;;;4.03;3.63;;;;;;;17.16;47.11;99068.44;4165179;28;20271;-32
2022/09/30 02:55:17;;;;;;;4.27;3.77;;;;;;;17.34;47.72;99037.28;4170393;28;20255;-32
2022/09/30 02:57:29;;;;;;;5.27;4.07;;;;;;;17.59;46.91;99023.81;4173129;28;20232;-32
2022/09/30 02:59:32;;;;;;;5.30;3.90;;;;;;;17.23;47.62;99061.13;4170439;28;20244;-32
2022/09/30 03:01:33;;;;;;;4.43;3.87;;;;;;;17.37;46.94;99055.66;4166557;28;20315;-32
2022/09/30 03:03:49;;;;;;;4.17;3.40;;;;;;;16.97;48.32;99091.69;4166466;28;21131;-32
2022/09/30 03:05:52;;;;;;;4.77;3.40;;;;;;;17.16;47.63;99076.47;4164626;28;20258;-32
2022/09/30 03:07:54;;;;;;;4.10;3.70;;;;;;;17.11;47.18;99081.69;4166051;28;20251;-32
2022/09/30 03:09:57;;;;;;;5.03;3.30;;;;;;;16.58;48.64;99116.91;4170593;28;20232;-32
2022/09/30 03:12:22;;;;;;;3.63;3.33;;;;;;;16.81;48.89;99084.16;4171173;28;20247;-32
2022/09/30 03:14:45;;;;;;;4.40;2.93;;;;;;;16.74;49.20;99076.16;4155920;28;20259;-32
2022/09/30 03:17:21;;;;;;;3.90;3.47;;;;;;;17.13;48.04;99035.78;4169013;28;20271;-32
2022/09/30 03:19:51;;;;;;;3.20;2.90;;;;;;;17.32;47.65;99026.75;4174428;28;20709;-32
2022/09/30 03:22:18;;;;;;;3.23;2.93;;;;;;;16.50;49.08;99118.81;4155052;28;21044;-33
2022/09/30 03:24:50;;;;;;;4.47;2.97;;;;;;;16.13;50.58;99121.19;4170934;28;20715;-31
2022/09/30 03:27:00;;;;;;;3.37;3.07;;;;;;;17.00;48.86;99036.72;4169481;28;20251;-32
2022/09/30 03:29:26;;;;;;;3.60;3.20;;;;;;;16.48;49.52;99106.63;4164709;28;20227;-32
2022/09/30 03:31:44;;;;;;;3.40;3.10;;;;;;;16.68;49.96;99067.09;4171324;28;20276;-32
2022/09/30 03:34:01;;;;;;;3.23;2.93;;;;;;;17.22;48.06;99029.91;4158095;28;20228;-32
2022/09/30 03:36:11;;;;;;;3.23;2.93;;;;;;;17.55;47.61;99018.06;4166414;28;21908;-32
2022/09/30 03:38:48;;;;;;;3.40;2.90;;;;;;;17.68;47.02;99022.47;4165110;28;20275;-31
2022/09/30 03:41:24;;;;;;;4.30;3.03;;;;;;;17.85;46.41;99022.69;4171408;28;20323;-32
2022/09/30 03:43:45;;;;;;;7.27;3.67;;;;;;;17.46;46.84;99074.00;4171548;28;20652;-32
2022/09/30 03:45:58;;;;;;;3.63;3.33;;;;;;;17.45;46.75;99071.50;4172559;28;20307;-32
2022/09/30 03:48:06;;;;;;;3.73;3.37;;;;;;;17.46;47.17;99079.38;4164513;28;20274;-32
2022/09/30 03:50:10;;;;;;;3.87;3.57;;;;;;;17.00;47.60;99130.72;4172539;28;20239;-32
2022/09/30 03:52:13;;;;;;;4.70;3.27;;;;;;;17.37;47.10;99085.22;4177305;28;20289;-32
2022/09/30 03:54:15;;;;;;;4.07;3.67;;;;;;;17.43;46.53;99085.16;4172526;28;20270;-32
2022/09/30 03:56:27;;;;;;;4.13;3.33;;;;;;;16.65;48.61;99150.72;4148411;28;20318;-32
2022/09/30 03:58:29;;;;;;;3.43;3.10;;;;;;;16.53;48.84;99149.75;4169483;28;20615;-32
2022/09/30 04:00:31;;;;;;;3.10;2.90;;;;;;;16.43;48.77;99147.47;4169946;28;20383;-32
2022/09/30 04:02:35;;;;;;;3.30;2.70;;;;;;;16.39;48.87;99140.09;4177517;28;20247;-32
2022/09/30 04:04:38;;;;;;;3.97;2.60;;;;;;;16.37;48.65;99137.63;4174541;28;20259;-31
2022/09/30 04:06:40;;;;;;;3.70;3.37;;;;;;;16.66;47.83;99125.53;4170008;28;20763;-32
2022/09/30 04:08:43;;;;;;;3.23;3.00;;;;;;;16.83;47.79;99108.94;4176700;28;20232;-32
2022/09/30 04:10:45;;;;;;;3.90;3.60;;;;;;;17.23;47.07;99074.56;4171505;28;20247;-32
2022/09/30 04:12:46;;;;;;;3.60;3.30;;;;;;;17.30;46.79;99087.97;4175290;28;20262;-32
2022/09/30 04:14:48;;;;;;;3.47;3.17;;;;;;;17.28;47.01;99093.56;4174473;28;20266;-32
2022/09/30 04:16:50;;;;;;;3.73;3.30;;;;;;;16.96;47.38;99142.91;4175312;28;20259;-32
2022/09/30 04:18:55;;;;;;;4.67;3.73;;;;;;;17.00;47.28;99128.84;4176183;28;20716;-32
2022/09/30 04:20:58;;;;;;;3.40;3.10;;;;;;;16.47;48.38;99172.91;4169652;28;20255;-32
2022/09/30 04:23:00;;;;;;;4.33;3.73;;;;;;;16.04;49.84;99191.34;4170526;28;20667;-32
2022/09/30 04:25:02;;;;;;;4.13;3.60;;;;;;;15.96;49.81;99189.69;4172134;28;20831;-32
2022/09/30 04:27:03;;;;;;;3.90;3.57;;;;;;;15.98;49.93;99171.56;4168183;28;20271;-32
2022/09/30 04:29:05;;;;;;;4.10;3.70;;;;;;;16.93;48.19;99080.56;4171029;28;20257;-32
2022/09/30 04:31:08;;;;;;;3.97;3.57;;;;;;;16.85;47.54;99126.47;4172218;28;20256;-32
2022/09/30 04:33:11;;;;;;;7.63;4.00;;;;;;;16.85;47.51;99134.50;4174128;28;20315;-32
2022/09/30 04:35:14;;;;;;;4.20;3.80;;;;;;;16.72;47.68;99151.53;4172597;28;20267;-32
2022/09/30 04:37:15;;;;;;;4.20;3.80;;;;;;;15.91;48.91;99206.41;4172053;28;20263;-32
2022/09/30 04:39:17;;;;;;;4.60;4.20;;;;;;;16.21;48.77;99168.38;4174384;28;20438;-32
2022/09/30 04:41:19;;;;;;;4.47;4.07;;;;;;;15.68;49.55;99203.31;4172939;28;20235;-32
2022/09/30 04:43:22;;;;;;;4.57;3.90;;;;;;;15.44;50.17;99214.41;4172396;28;20266;-32
2022/09/30 04:45:24;;;;;;;4.13;3.73;;;;;;;15.46;50.45;99187.41;4170909;28;20259;-32
2022/09/30 04:47:26;;;;;;;4.30;3.90;;;;;;;15.28;50.91;99177.28;4166480;28;20733;-31
2022/09/30 04:49:27;;;;;;;5.07;4.00;;;;;;;16.12;49.29;99102.63;4175835;28;20224;-32
2022/09/30 04:51:29;;;;;;;4.33;3.93;;;;;;;16.60;48.35;99085.31;4171581;28;20901;-32
2022/09/30 04:53:31;;;;;;;4.10;3.80;;;;;;;16.50;48.08;99107.22;4172778;28;20228;-32
2022/09/30 04:55:32;;;;;;;4.40;3.60;;;;;;;16.36;48.39;99127.91;4172975;28;20303;-31
2022/09/30 04:57:34;;;;;;;4.87;3.63;;;;;;;15.89;48.97;99175.47;4170844;28;20274;-31
2022/09/30 04:59:36;;;;;;;5.03;3.60;;;;;;;15.78;49.27;99176.94;4171951;28;20230;-31
2022/09/30 05:01:39;;;;;;;5.27;3.93;;;;;;;15.06;50.04;99224.81;4172323;28;20263;-32
2022/09/30 05:03:42;;;;;;;4.60;4.20;;;;;;;15.47;50.36;99164.09;4171738;28;20232;-31
2022/09/30 05:05:44;;;;;;;4.63;3.90;;;;;;;15.56;49.95;99165.56;4173666;28;20370;-31
2022/09/30 05:07:46;;;;;;;4.77;4.03;;;;;;;16.02;49.11;99110.28;4171695;28;20274;-31
2022/09/30 05:09:48;;;;;;;4.93;3.77;;;;;;;15.43;49.87;99183.25;4174708;28;20263;-32
2022/09/30 05:11:49;;;;;;;4.00;3.63;;;;;;;15.29;50.32;99176.25;4173861;28;20232;-32
2022/09/30 05:13:51;;;;;;;4.30;4.00;;;;;;;15.05;50.30;99205.25;4170776;28;20735;-31
2022/09/30 05:15:53;;;;;;;4.40;4.10;;;;;;;15.87;49.55;99113.19;4173775;28;20232;-31
2022/09/30 05:17:55;;;;;;;4.10;3.70;;;;;;;15.83;49.11;99138.75;4156843;28;20611;-32
2022/09/30 05:19:57;;;;;;;5.70;3.60;;;;;;;15.61;49.19;99174.63;4171858;28;20240;-31
2022/09/30 05:21:58;;;;;;;3.50;3.20;;;;;;;15.22;50.01;99203.03;4157224;28;20272;-31
2022/09/30 05:24:01;;;;;;;4.67;4.10;;;;;;;14.70;50.83;99232.06;4171688;28;20208;-31
2022/09/30 05:26:03;;;;;;;4.40;4.00;;;;;;;14.88;50.84;99207.47;4174647;28;20253;-31
2022/09/30 05:28:12;;;;;;;4.20;3.80;;;;;;;14.31;51.57;99246.88;4155289;28;20921;-31
2022/09/30 05:30:13;;;;;;;4.10;3.70;;;;;;;14.56;51.37;99224.16;4171559;28;20262;-31
2022/09/30 05:32:17;;;;;;;4.57;4.00;;;;;;;15.03;50.30;99185.88;4171018;28;20259;-31
2022/09/30 05:34:20;;;;;;;5.80;4.07;;;;;;;15.14;50.14;99178.28;4174185;28;20264;-31
2022/09/30 05:36:21;;;;;;;4.17;3.77;;;;;;;14.81;50.61;99219.97;4167413;28;20334;-31
2022/09/30 05:38:23;;;;;;;4.83;3.70;;;;;;;14.98;50.58;99203.56;4169255;28;20652;-30
2022/09/30 05:40:25;;;;;;;4.23;3.73;;;;;;;14.66;50.92;99232.66;4174503;28;20232;-29
2022/09/30 05:42:26;;;;;;;4.03;3.70;;;;;;;14.24;51.64;99242.47;4171884;28;20248;-31
2022/09/30 05:44:28;;;;;;;4.33;3.93;;;;;;;13.85;52.66;99250.00;4169309;28;20703;-30
2022/09/30 05:46:30;;;;;;;5.43;3.80;;;;;;;13.58;53.39;99244.41;4167724;28;20335;-30
2022/09/30 05:48:31;;;;;;;4.43;4.00;;;;;;;13.68;53.39;99233.38;4165723;28;20242;-31
2022/09/30 05:50:33;;;;;;;5.43;3.63;;;;;;;13.24;54.01;99254.94;4172691;28;20272;-30
2022/09/30 05:52:35;;;;;;;4.83;4.10;;;;;;;13.86;53.08;99203.56;4172041;28;20316;-31
2022/09/30 05:54:36;;;;;;;4.10;3.70;;;;;;;13.94;52.66;99206.09;4172381;28;20267;-31
2022/09/30 05:56:38;;;;;;;3.97;3.60;;;;;;;13.93;53.05;99195.59;4172079;28;20311;-31
2022/09/30 05:58:40;;;;;;;5.03;3.53;;;;;;;14.47;51.80;99146.75;4170221;28;20680;-32
2022/09/30 06:00:45;;;;;;;3.87;3.57;;;;;;;14.27;52.11;99170.72;4170987;28;20335;-30
2022/09/30 06:02:50;;;;;;;4.67;3.57;;;;;;;14.04;51.95;99207.59;4169838;28;20270;-30
2022/09/30 06:04:52;;;;;;;3.73;3.40;;;;;;;14.85;50.58;99132.09;4171077;28;20253;-29
2022/09/30 06:06:54;;;;;;;5.37;3.47;;;;;;;14.63;51.01;99183.03;4169956;28;20511;-30
2022/09/30 06:08:55;;;;;;;8.30;4.00;;;;;;;14.67;50.73;99195.00;4170101;28;20256;-31
2022/09/30 06:10:58;;;;;;;5.83;3.57;;;;;;;15.25;50.11;99137.50;4172361;28;20237;-32
2022/09/30 06:13:03;;;;;;;8.47;3.73;;;;;;;14.31;51.51;99241.50;4165729;28;20780;-30
2022/09/30 06:15:05;;;;;;;4.43;3.67;;;;;;;13.66;52.77;99272.81;4171478;28;20257;-30
2022/09/30 06:17:07;;;;;;;4.83;4.00;;;;;;;13.80;53.24;99248.91;4172107;28;20242;-30
2022/09/30 06:19:09;;;;;;;4.30;3.70;;;;;;;14.20;52.62;99214.50;4153412;28;20264;-29
2022/09/30 06:21:14;;;;;;;6.03;3.97;;;;;;;13.90;53.30;99215.50;4153533;28;20757;-29
2022/09/30 06:23:15;;;;;;;4.77;4.00;;;;;;;13.86;53.04;99240.16;4170498;28;20247;-30
2022/09/30 06:25:17;;;;;;;4.80;4.03;;;;;;;14.01;53.08;99226.72;4173529;28;20311;-30
2022/09/30 06:27:19;;;;;;;6.93;3.80;;;;;;;13.61;53.35;99272.56;4172482;28;20271;-30
2022/09/30 06:29:20;;;;;;;5.17;4.00;;;;;;;13.48;53.88;99267.91;4171242;28;20327;-32
2022/09/30 06:31:22;;;;;;;5.07;4.20;;;;;;;14.62;52.24;99143.94;4173280;28;20684;-32
2022/09/30 06:33:26;;;;;;;4.73;4.33;;;;;;;14.21;52.89;99200.09;4173253;28;20228;-30
2022/09/30 06:35:28;;;;;;;5.33;4.67;;;;;;;14.02;53.19;99206.97;4155061;28;20532;-30
2022/09/30 06:37:30;;;;;;;8.17;4.97;;;;;;;14.17;52.90;99214.88;4169996;28;20662;-32
2022/09/30 06:39:31;;;;;;;5.30;4.73;;;;;;;14.67;51.94;99144.16;4172250;28;20322;-31
2022/09/30 06:41:38;;;;;;;4.97;4.47;;;;;;;15.07;50.72;99173.75;4170368;28;20246;-31
2022/09/30 06:43:41;;;;;;;5.37;4.30;;;;;;;14.80;51.14;99225.53;4171309;28;20264;-31
2022/09/30 06:45:50;;;;;;;5.07;4.10;;;;;;;14.76;51.72;99222.44;4168169;28;20252;-30
2022/09/30 06:48:00;;;;;;;5.43;4.40;;;;;;;15.53;49.99;99177.50;4167987;28;20601;-30
2022/09/30 06:50:02;;;;;;;6.17;4.90;;;;;;;14.77;51.22;99258.88;4171097;28;20266;-31
2022/09/30 06:52:04;;;;;;;5.47;4.97;;;;;;;14.97;51.49;99239.41;4167003;28;20520;-30
2022/09/30 06:54:07;;;;;;;7.83;6.10;;;;;;;15.89;49.80;99144.13;4171648;28;20312;-29
2022/09/30 06:56:09;;;;;;;6.67;5.60;;;;;;;16.00;49.89;99156.06;4168824;28;20232;-30
2022/09/30 06:58:15;;;;;;;6.83;5.20;;;;;;;16.18;49.52;99185.75;4178817;28;20323;-31
2022/09/30 07:00:17;;;;;;;8.30;5.67;;;;;;;16.43;49.08;99162.75;4177271;28;20289;-33
2022/09/30 07:02:19;;;;;;;7.30;6.20;;;;;;;15.85;50.27;99243.94;4172819;28;20752;-31
2022/09/30 07:04:21;;;;;;;8.50;6.67;;;;;;;16.52;49.20;99153.50;4172802;28;20231;-30
2022/09/30 07:06:27;;;;;;;7.00;5.90;;;;;;;16.70;49.09;99193.03;4165199;28;20436;-30
2022/09/30 07:08:30;;;;;;;9.43;6.57;;;;;;;16.94;48.50;99180.75;4171484;28;20236;-30
2022/09/30 07:10:32;;;;;;;7.67;6.83;;;;;;;16.83;48.88;99206.41;4171348;28;21801;-30
2022/09/30 07:12:34;;;;;;;7.30;6.47;;;;;;;;;;4167978;28;20319;-32
2022/09/30 07:14:36;;;;;;;9.07;6.80;;;;;;;17.15;48.63;99187.66;4171831;28;20271;-30
2022/09/30 07:16:38;;;;;;;8.37;6.73;;;;;;;16.62;49.37;99260.38;4171278;28;20814;-30
2022/09/30 07:18:43;;;;;;;9.20;7.40;;;;;;;15.62;51.23;99337.13;4172331;28;20241;-30
2022/09/30 07:20:53;;;;;;;8.87;7.00;;;;;;;17.18;49.04;99168.41;4174109;28;20266;-30
2022/09/30 07:22:55;;;;;;;7.17;6.37;;;;;;;17.30;48.55;99182.00;4175177;28;20665;-31
2022/09/30 07:24:58;;;;;;;10.17;7.47;;;;;;;17.02;49.11;99228.81;4172470;28;20327;-30
2022/09/30 07:27:00;;;;;;;8.70;7.80;;;;;;;17.39;48.34;99217.50;4171597;28;20320;-31
2022/09/30 07:29:02;;;;;;;11.10;8.17;;;;;;;17.02;49.58;99244.94;4172112;28;20729;-30
2022/09/30 07:31:18;;;;;;;10.20;7.73;;;;;;;17.17;49.35;99228.53;4173123;28;20224;-31
2022/09/30 07:33:37;;;;;;;9.63;7.53;;;;;;;16.41;50.01;99315.91;4167557;28;20742;-31
2022/09/30 07:35:39;;;;;;;9.67;7.90;;;;;;;16.81;49.75;99272.91;4170198;28;20659;-31
2022/09/30 07:37:41;;;;;;;10.83;8.87;;;;;;;15.94;51.32;99341.91;4170815;28;20801;-30
2022/09/30 07:39:45;;;;;;;9.87;7.60;;;;;;;15.85;51.33;99351.19;4164596;28;20311;-32
2022/09/30 07:41:47;;;;;;;9.37;7.37;;;;;;;17.16;49.80;99197.38;4171589;28;20377;-31
2022/09/30 07:43:49;;;;;;;10.80;8.40;;;;;;;16.46;50.13;99312.63;4176577;28;20227;-32
2022/09/30 07:45:52;;;;;;;10.90;7.60;;;;;;;16.76;50.27;99262.00;4169993;28;20310;-32
2022/09/30 07:47:53;;;;;;;10.03;7.40;;;;;;;16.80;50.22;99273.94;4175881;28;20740;-31
2022/09/30 07:49:55;;;;;;;10.80;7.07;;;;;;;17.11;49.66;99237.47;4175095;28;20228;-32
2022/09/30 07:51:58;;;;;;;8.70;7.57;;;;;;;16.92;49.60;99274.97;4172852;28;20267;-30
2022/09/30 07:54:04;;;;;;;11.77;8.23;;;;;;;16.81;50.40;99277.47;4172434;28;20240;-31
2022/09/30 07:56:08;;;;;;;10.47;8.10;;;;;;;17.16;49.57;99245.72;4148020;28;20311;-31
2022/09/30 07:58:09;;;;;;;11.27;7.77;;;;;;;17.49;48.80;99233.97;4172626;28;20914;-32
2022/09/30 08:00:11;;;;;;;9.93;6.83;;;;;;;17.36;49.00;99260.94;4176296;28;20238;-32
2022/09/30 08:02:33;;;;;;;9.70;6.97;;;;;;;17.66;48.86;99229.69;4164024;28;20254;-30
2022/09/30 08:04:35;;;;;;;9.53;7.03;;;;;;;17.16;49.55;99294.06;4170732;28;20262;-30
2022/09/30 08:06:49;;;;;;;12.93;7.37;;;;;;;16.49;50.66;99363.22;4174565;28;20286;-31
2022/09/30 08:08:53;;;;;;;13.40;7.70;;;;;;;15.74;51.54;99409.72;4175687;28;20251;-30
2022/09/30 08:10:59;;;;;;;14.27;7.50;;;;;;;16.65;50.90;99333.25;4170075;28;20259;-30
2022/09/30 08:13:01;;;;;;;12.90;7.60;;;;;;;17.61;49.13;99242.97;4172657;28;20242;-31
2022/09/30 08:15:08;;;;;;;10.73;7.57;;;;;;;17.03;50.31;99300.31;4173444;28;20238;-31
2022/09/30 08:17:10;;;;;;;12.33;8.77;;;;;;;17.00;50.42;99289.19;4168926;28;20232;-31
2022/09/30 08:19:15;;;;;;;12.27;8.37;;;;;;;16.46;51.48;99332.22;4171425;28;20252;-31
2022/09/30 08:21:17;;;;;;;10.87;8.73;;;;;;;16.48;51.63;99330.16;4174112;28;20718;-29
2022/09/30 08:23:19;;;;;;;14.07;8.37;;;;;;;16.74;51.28;99323.13;4175547;28;20651;-31
2022/09/30 08:25:22;;;;;;;12.47;9.30;;;;;;;17.72;49.43;99219.97;4174629;28;20256;-30
2022/09/30 08:27:23;;;;;;;13.30;8.73;;;;;;;16.51;50.96;99367.34;4170515;28;20260;-30
2022/09/30 08:29:26;;;;;;;10.93;8.93;;;;;;;17.10;50.32;99300.28;4171181;28;20230;-30
2022/09/30 08:31:48;;;;;;;11.53;8.57;;;;;;;17.46;49.92;99258.59;4167087;28;20227;-30
2022/09/30 08:33:50;;;;;;;12.17;8.70;;;;;;;17.28;50.57;99280.81;4170701;28;20365;-29
2022/09/30 08:35:52;;;;;;;12.43;9.40;;;;;;;17.82;49.32;99246.38;4168288;28;20260;-30
2022/09/30 08:37:54;;;;;;;10.97;8.83;;;;;;;17.72;49.73;99272.91;4174414;28;20273;-30
2022/09/30 08:39:55;;;;;;;10.13;8.67;;;;;;;17.88;48.49;99287.69;4172929;28;20335;-30
2022/09/30 08:42:12;;;;;;;11.23;8.47;;;;;;;17.78;49.05;99309.66;4171939;28;20272;-30
2022/09/30 08:44:46;;;;;;;15.23;9.50;;;;;;;17.66;49.76;99315.72;4158570;28;20248;-29
2022/09/30 08:47:18;;;;;;;9.20;8.17;;;;;;;16.59;51.89;99408.41;4170699;28;20258;-31
2022/09/30 08:49:44;;;;;;;12.20;8.10;;;;;;;16.49;51.83;99401.59;4164285;28;20666;-30
2022/09/30 08:51:48;;;;;;;8.90;7.80;;;;;;;17.04;50.82;99354.84;4171035;28;20259;-31
2022/09/30 08:53:52;;;;;;;10.20;8.20;;;;;;;16.23;52.34;99428.38;4173132;28;20230;-31
2022/09/30 08:55:56;;;;;;;11.37;8.70;;;;;;;17.31;51.30;99309.13;4171674;28;20327;-30
2022/09/30 08:58:01;;;;;;;10.03;8.33;;;;;;;17.40;51.09;99300.59;4173639;28;20525;-32
2022/09/30 09:00:09;;;;;;;18.90;8.80;;;;;;;16.92;50.76;99392.28;4172154;28;20267;-30
2022/09/30 09:02:26;;;;;;;15.37;9.83;;;;;;;17.61;50.07;99315.56;4172292;28;20676;-32
2022/09/30 09:04:28;;;;;;;16.00;9.50;;;;;;;17.42;50.29;99332.63;4169195;28;20493;-31
2022/09/30 09:06:35;;;;;;;12.80;9.00;;;;;;;17.00;51.22;99375.13;4168432;28;20255;-32
2022/09/30 09:09:02;;;;;;;12.97;8.60;;;;;;;17.13;51.55;99350.06;4173700;28;20254;-31
2022/09/30 09:11:30;;;;;;;11.40;9.73;;;;;;;17.29;51.25;99320.06;4172404;28;20252;-30
2022/09/30 09:13:50;;;;;;;26.13;10.70;;;;;;;17.51;50.54;99309.81;4170576;28;20679;-31
2022/09/30 09:16:17;;;;;;;13.97;9.37;;;;;;;17.17;51.12;99354.81;4173234;28;20232;-31
2022/09/30 09:18:33;;;;;;;19.33;9.80;;;;;;;18.06;49.70;99260.03;4172805;28;20266;-32
2022/09/30 09:20:41;;;;;;;24.80;11.07;;;;;;;18.02;49.47;99275.78;4174191;28;20255;-30
2022/09/30 09:22:44;;;;;;;13.57;9.70;;;;;;;18.31;49.60;99258.16;4174304;28;20224;-31
2022/09/30 09:24:49;;;;;;;17.37;11.67;;;;;;;17.59;50.71;99327.59;4170208;28;20598;-32
2022/09/30 09:26:56;;;;;;;12.23;9.27;;;;;;;18.24;49.68;99268.19;4172836;28;20323;-31
2022/09/30 09:29:19;;;;;;;19.33;11.63;;;;;;;17.71;50.58;99333.09;4169045;28;20278;-31
2022/09/30 09:31:21;;;;;;;15.00;11.30;;;;;;;18.06;49.74;99297.69;4172629;28;20232;-30
2022/09/30 09:33:34;;;;;;;14.33;11.43;;;;;;;18.04;50.39;99279.91;4172376;28;20232;-31
2022/09/30 09:35:47;;;;;;;11.77;10.47;;;;;;;17.78;51.00;99317.75;4172886;28;20232;-30
2022/09/30 09:40:33;;;;;;;12.40;10.57;;;;;;;18.76;49.08;99243.59;4170588;28;20235;-30
2022/09/30 09:42:57;;;;;;;13.67;12.00;;;;;;;18.26;49.45;99303.75;4170072;28;20271;-31
2022/09/30 09:45:21;;;;;;;17.13;14.33;;;;;;;18.34;49.86;99287.34;4171197;28;20647;-30
2022/09/30 09:47:23;;;;;;;21.20;13.30;;;;;;;18.18;49.25;99312.91;4171135;28;20239;-31
2022/09/30 09:49:29;;;;;;;15.27;13.07;;;;;;;18.30;49.53;99302.25;4172043;28;20259;-31
2022/09/30 09:51:38;;;;;;;14.17;12.67;;;;;;;17.38;51.52;99401.28;4169459;28;20338;-32
2022/09/30 09:53:48;;;;;;;12.60;11.27;;;;;;;18.68;49.88;99260.88;4174162;28;20255;-31
2022/09/30 09:55:54;;;;;;;18.60;12.23;;;;;;;18.85;49.22;99260.31;4172463;28;20723;-32
2022/09/30 09:58:06;;;;;;;14.40;12.60;;;;;;;17.59;50.73;99392.91;4169601;28;20267;-32
2022/09/30 10:02:42;;;;;;;13.83;12.37;;;;;;;18.86;48.94;99283.50;4169600;28;20281;-31
2022/09/30 10:04:49;;;;;;;13.87;12.43;;;;;;;19.59;47.93;99209.78;4172793;28;20282;-31